Zprávy METAR z letišť v České republice

LKPR - Praha Ruzyně, Česká republika
Vzdálenost od této stanice: JV 30km
Aktualizováno: 17.10.2018 23:00
 
Teplota vzduchu: 9°C
Chlad větru: 8°C
Vítr: Z 7 km/h
Rosný bod: 6°C
Vlhkost vzduchu: 82%
Tlak vzduchu: 1020 hPa
Stav počasí: Jasno
Oblačnost: jasná obloha
Viditelnost: více než 10 km
2018/10/17 21:00 LKPR 172100Z 26004KT CAVOK 09/06 Q1020 NOSIG
LKTB - Brno Tuřany, Česká republika
Vzdálenost od této stanice: VJV 234km
Aktualizováno: 17.10.2018 23:00
 
Teplota vzduchu: 14°C
Vítr: V 11 km/h
Rosný bod: 8°C
Vlhkost vzduchu: 67%
Tlak vzduchu: 1020 hPa
Stav počasí: Jasno
Oblačnost: jasná obloha
Viditelnost: více než 10 km
2018/10/17 21:00 LKTB 172100Z 08006KT CAVOK 14/08 Q1020 NOSIG
 
LKKV - Karlovy Vary, Česká republika
Vzdálenost od této stanice: Z 72km
Aktualizováno: 17.10.2018 23:00
 
Teplota vzduchu: 8°C
Vítr: proměnlivý 2 km/h
Rosný bod: 7°C
Vlhkost vzduchu: 93%
Tlak vzduchu: 1020 hPa
Stav počasí: Jasno
Oblačnost: jasná obloha
Viditelnost: více než 10 km
2018/10/17 21:00 LKKV 172100Z VRB01KT CAVOK 08/07 Q1020
LKMT - Ostrava Mošnov, Česká republika
Vzdálenost od této stanice: VJV 306km
Aktualizováno: 17.10.2018 23:00
 
Teplota vzduchu: 12°C
Vítr: JZ 6 km/h
Rosný bod: 11°C
Vlhkost vzduchu: 94%
Tlak vzduchu: 1021 hPa
Stav počasí: Mírnější déšť, Opar
Oblačnost: oblačno
Viditelnost: 5 km
2018/10/17 21:00 LKMT 172100Z 23003KT 200V270 5000 -RA BR NSC 12/11 Q1021 NOSIG
 
LKPD - Pardubice, Česká republika
Vzdálenost od této stanice: VJV 132km
Aktualizováno: 17.10.2018 23:00
 
Teplota vzduchu: 11°C
Vítr: bezvětří
Rosný bod: 7°C
Vlhkost vzduchu: 77%
Tlak vzduchu: 1020 hPa
Stav počasí: Jasno
Oblačnost: jasná obloha
Viditelnost: více než 10 km
2018/10/17 21:00 LKPD 172100Z 00000KT CAVOK 11/07 Q1020
LKKB - Praha Kbely, Česká republika
Vzdálenost od této stanice: VJV 46km
Aktualizováno: 17.10.2018 23:00
 
Teplota vzduchu: 10°C
Vítr: bezvětří
Rosný bod: 7°C
Vlhkost vzduchu: 82%
Tlak vzduchu: 1019 hPa
Stav počasí: Jasno
Oblačnost: jasná obloha
Viditelnost: více než 10 km
2018/10/17 21:00 LKKB 172100Z 00000KT CAVOK 10/07 Q1019
 
LKCV - Čáslav, Česká republika
Vzdálenost od této stanice: VJV 110km
Aktualizováno: 17.10.2018 23:00
 
Teplota vzduchu: 13°C
Vítr: JJV 4 km/h
Rosný bod: 8°C
Vlhkost vzduchu: 72%
Tlak vzduchu: 1020 hPa
Stav počasí: Jasno
Oblačnost: jasná obloha
Viditelnost: více než 10 km
2018/10/17 21:00 LKCV 172100Z 15002KT CAVOK 13/08 Q1020 NOSIG
LKNA - Náměšť n. Osl., Česká republika
Vzdálenost od této stanice: JV 200km
Aktualizováno: 17.10.2018 23:00
 
Teplota vzduchu: 11°C
Vítr: VSV 11 km/h
Rosný bod: 7°C
Vlhkost vzduchu: 77%
Tlak vzduchu: 1020 hPa
Stav počasí: Jasno
Oblačnost: jasná obloha
Viditelnost: více než 10 km
2018/10/17 21:00 LKNA 172100Z 06006KT CAVOK 11/07 Q1020
 
LKLN - Plzeň Líně, Česká republika
Vzdálenost od této stanice: JZ 80km
Aktualizováno: 17.10.2018 23:00
 
Teplota vzduchu: 8°C
Vítr: bezvětří
Rosný bod: 7°C
Vlhkost vzduchu: 93%
Tlak vzduchu: 1020 hPa
Stav počasí: Jasno
Oblačnost: jasná obloha
Viditelnost: více než 10 km
2018/10/17 21:00 LKLN 172100Z AUTO 00000KT CAVOK 08/07 Q1020
LKVO - Vodochody, Česká republika
Vzdálenost od této stanice: V 34km
Aktualizováno: 17.10.2018 17:00
Není aktuální
 
Teplota vzduchu: 18°C
Vítr: V 7 km/h
Rosný bod: 8°C
Vlhkost vzduchu: 52%
Tlak vzduchu: 1019 hPa
Stav počasí: Jasno
Oblačnost: jasná obloha
Viditelnost: více než 10 km
2018/10/17 15:00 LKVO 171500Z 10004KT CAVOK 18/08 Q1019

Metar display script od Saratoga-Weather.org
upravil a přeložil Miloš Jiřík